Time;durP1;ratioP1;P1;durP2;ratioP2;P2;SDS_P1;SDS_P2;PMS_P1;PMS_P2;Temp;Humidity;BMP_temperature;BMP_pressure;BME280_temperature;BME280_humidity;BME280_pressure;Samples;Min_cycle;Max_cycle;Signal;HPM_P1;HPM_P2
2021/12/15 00:02:20;;;;;;;23.47;11.47;;;;;;;;;;5060161;28;20457;-73
2021/12/15 00:04:50;;;;;;;29.67;12.90;;;;;;;;;;5062071;28;20480;-72
2021/12/15 00:07:19;;;;;;;29.27;13.30;;;;;;;;;;5062122;28;20457;-72
2021/12/15 00:09:47;;;;;;;23.93;12.00;;;;;;;;;;5062502;28;20456;-72
2021/12/15 00:12:16;;;;;;;28.97;14.83;;;;;;;;;;5061437;28;20484;-72
2021/12/15 00:14:45;;;;;;;23.87;13.40;;;;;;;;;;5061077;28;20862;-72
2021/12/15 00:17:16;;;;;;;26.47;12.77;;;;;;;;;;5061911;28;20465;-71
2021/12/15 00:19:44;;;;;;;27.00;13.57;;;;;;;;;;5061422;28;20460;-72
2021/12/15 00:22:13;;;;;;;23.90;11.93;;;;;;;;;;5062151;28;20527;-72
2021/12/15 00:24:42;;;;;;;22.90;13.13;;;;;;;;;;5061049;28;20571;-72
2021/12/15 00:27:11;;;;;;;28.03;11.10;;;;;;;;;;5061647;28;20457;-72
2021/12/15 00:29:39;;;;;;;32.50;14.77;;;;;;;;;;5059726;28;20445;-72
2021/12/15 00:32:08;;;;;;;25.40;13.33;;;;;;;;;;5061046;28;20467;-73
2021/12/15 00:34:41;;;;;;;29.20;15.10;;;;;;;;;;5060299;28;20472;-72
2021/12/15 00:37:10;;;;;;;30.07;14.63;;;;;;;;;;5060542;28;20515;-71
2021/12/15 00:39:38;;;;;;;30.60;13.93;;;;;;;;;;5061177;28;20540;-75
2021/12/15 00:42:06;;;;;;;30.33;15.10;;;;;;;;;;5060460;28;20457;-71
2021/12/15 00:44:35;;;;;;;29.60;14.17;;;;;;;;;;5060694;28;20485;-71
2021/12/15 00:47:03;;;;;;;25.63;12.27;;;;;;;;;;5059922;28;20556;-71
2021/12/15 00:49:31;;;;;;;27.40;12.73;;;;;;;;;;5059836;28;20437;-72
2021/12/15 00:52:01;;;;;;;30.10;12.53;;;;;;;;;;5060247;28;20497;-71
2021/12/15 00:54:29;;;;;;;22.37;11.03;;;;;;;;;;5059515;28;20530;-72
2021/12/15 00:56:57;;;;;;;28.40;12.30;;;;;;;;;;5059811;28;20461;-71
2021/12/15 00:59:25;;;;;;;24.97;11.40;;;;;;;;;;5059810;28;20779;-71
2021/12/15 01:01:54;;;;;;;26.00;12.17;;;;;;;;;;5059726;28;20560;-70
2021/12/15 01:04:23;;;;;;;21.30;11.53;;;;;;;;;;5060444;28;20524;-71
2021/12/15 01:06:53;;;;;;;16.90;8.40;;;;;;;;;;5059393;28;20477;-71
2021/12/15 01:09:23;;;;;;;22.33;9.87;;;;;;;;;;5060135;28;20451;-71
2021/12/15 01:12:09;;;;;;;21.50;11.47;;;;;;;;;;5059834;28;20480;-72
2021/12/15 01:20:16;;;;;;;15.93;9.17;;;;;;;;;;5058887;28;20921;-71
2021/12/15 01:22:46;;;;;;;25.20;11.37;;;;;;;;;;5059517;28;20457;-72
2021/12/15 01:25:22;;;;;;;21.70;9.60;;;;;;;;;;5059436;28;20473;-71
2021/12/15 01:27:50;;;;;;;19.27;9.27;;;;;;;;;;5059094;28;20522;-71
2021/12/15 01:30:20;;;;;;;17.93;10.00;;;;;;;;;;5059399;28;21000;-71
2021/12/15 01:32:48;;;;;;;18.50;9.80;;;;;;;;;;5059359;28;20548;-73
2021/12/15 01:35:16;;;;;;;19.20;9.50;;;;;;;;;;5059229;28;20449;-72
2021/12/15 01:37:45;;;;;;;17.03;9.93;;;;;;;;;;5059522;28;20489;-72
2021/12/15 01:40:25;;;;;;;18.00;9.77;;;;;;;;;;5059355;28;20468;-72
2021/12/15 01:42:57;;;;;;;13.20;8.43;;;;;;;;;;5059591;28;20465;-72
2021/12/15 01:48:13;;;;;;;16.93;8.53;;;;;;;;;;5058850;28;20425;-71
2021/12/15 01:50:41;;;;;;;16.60;8.07;;;;;;;;;;5058854;28;20449;-71
2021/12/15 01:53:10;;;;;;;18.73;9.43;;;;;;;;;;5058945;28;20556;-71
2021/12/15 01:55:38;;;;;;;15.10;8.30;;;;;;;;;;5059175;28;20565;-71
2021/12/15 01:58:08;;;;;;;12.90;6.77;;;;;;;;;;5059005;28;20557;-72
2021/12/15 02:00:39;;;;;;;15.87;8.73;;;;;;;;;;5058773;28;20496;-72
2021/12/15 02:03:07;;;;;;;19.37;9.20;;;;;;;;;;5058863;28;20462;-72
2021/12/15 02:05:37;;;;;;;15.93;9.20;;;;;;;;;;5059445;28;20508;-71
2021/12/15 02:08:06;;;;;;;16.03;8.23;;;;;;;;;;5058473;28;20453;-71
2021/12/15 02:10:36;;;;;;;13.17;7.67;;;;;;;;;;5058984;28;20445;-72
2021/12/15 02:13:06;;;;;;;14.87;8.87;;;;;;;;;;5057972;28;20477;-71
2021/12/15 02:15:38;;;;;;;13.80;8.27;;;;;;;;;;5058305;28;20450;-71
2021/12/15 02:18:07;;;;;;;14.97;8.33;;;;;;;;;;5057911;28;20461;-71
2021/12/15 02:20:38;;;;;;;15.37;8.83;;;;;;;;;;5058227;28;20449;-71
2021/12/15 02:23:07;;;;;;;14.80;7.87;;;;;;;;;;5058853;28;20457;-71
2021/12/15 02:25:35;;;;;;;13.50;8.43;;;;;;;;;;5057446;28;20481;-72
2021/12/15 02:28:06;;;;;;;13.60;8.53;;;;;;;;;;5057540;28;20449;-72
2021/12/15 02:30:49;;;;;;;15.07;8.50;;;;;;;;;;5058146;28;20450;-71
2021/12/15 02:39:05;;;;;;;16.27;10.20;;;;;;;;;;5057771;28;20412;-72
2021/12/15 02:41:33;;;;;;;22.53;10.97;;;;;;;;;;5058673;28;20454;-71
2021/12/15 02:44:02;;;;;;;22.43;9.40;;;;;;;;;;5058440;28;20473;-72
2021/12/15 02:46:32;;;;;;;18.10;8.70;;;;;;;;;;5057189;28;20550;-72
2021/12/15 02:49:00;;;;;;;17.10;9.23;;;;;;;;;;5057575;28;20444;-71
2021/12/15 02:51:31;;;;;;;25.07;10.83;;;;;;;;;;5057796;28;20461;-72
2021/12/15 02:54:00;;;;;;;22.30;12.03;;;;;;;;;;5057829;28;20751;-72
2021/12/15 02:56:28;;;;;;;24.20;11.30;;;;;;;;;;5057737;28;20886;-71
2021/12/15 02:59:00;;;;;;;21.87;11.40;;;;;;;;;;5057736;28;20945;-71
2021/12/15 03:01:37;;;;;;;22.57;11.43;;;;;;;;;;5057868;28;20807;-72
2021/12/15 03:04:16;;;;;;;22.97;10.80;;;;;;;;;;5057159;28;20453;-71
2021/12/15 03:06:53;;;;;;;20.93;9.53;;;;;;;;;;5057336;28;20946;-71
2021/12/15 03:17:38;;;;;;;25.77;12.57;;;;;;;;;;5057761;28;20424;-72
2021/12/15 03:20:07;;;;;;;26.43;10.50;;;;;;;;;;5057884;28;20449;-72
2021/12/15 03:22:37;;;;;;;27.50;13.63;;;;;;;;;;5056943;28;20469;-72
2021/12/15 03:25:05;;;;;;;23.47;11.50;;;;;;;;;;5057422;28;20570;-72
2021/12/15 03:36:00;;;;;;;22.57;11.57;;;;;;;;;;5057296;28;21061;-72
2021/12/15 03:38:30;;;;;;;29.80;13.00;;;;;;;;;;5056889;28;20486;-71
2021/12/15 03:40:58;;;;;;;26.67;13.57;;;;;;;;;;5057119;28;20500;-72
2021/12/15 03:43:26;;;;;;;28.37;14.50;;;;;;;;;;5056804;28;20816;-72
2021/12/15 03:45:55;;;;;;;33.83;14.43;;;;;;;;;;5058321;28;20517;-72
2021/12/15 03:48:27;;;;;;;29.50;14.63;;;;;;;;;;5056983;28;20445;-72
2021/12/15 03:50:56;;;;;;;31.10;12.67;;;;;;;;;;5057526;28;20869;-72
2021/12/15 03:53:24;;;;;;;31.63;14.20;;;;;;;;;;5057048;28;20503;-72
2021/12/15 03:55:53;;;;;;;28.30;14.40;;;;;;;;;;5057365;28;20942;-71
2021/12/15 03:58:24;;;;;;;28.60;13.73;;;;;;;;;;5056565;28;20485;-72
2021/12/15 04:00:53;;;;;;;37.23;15.60;;;;;;;;;;5056728;28;20544;-72
2021/12/15 04:03:23;;;;;;;33.13;12.97;;;;;;;;;;5056343;28;20461;-72
2021/12/15 04:05:51;;;;;;;25.57;10.80;;;;;;;;;;5057062;28;20491;-73
2021/12/15 04:08:19;;;;;;;32.60;14.37;;;;;;;;;;5056800;28;20458;-72
2021/12/15 04:10:48;;;;;;;28.67;12.17;;;;;;;;;;5056440;28;20493;-72
2021/12/15 04:13:18;;;;;;;29.60;13.57;;;;;;;;;;5057082;28;20465;-72
2021/12/15 04:15:53;;;;;;;29.87;14.27;;;;;;;;;;5057799;28;20532;-71
2021/12/15 04:18:21;;;;;;;27.30;12.60;;;;;;;;;;5056688;28;20452;-71
2021/12/15 04:20:50;;;;;;;31.37;13.00;;;;;;;;;;5057050;28;20548;-71
2021/12/15 04:23:19;;;;;;;39.80;14.90;;;;;;;;;;5050641;28;20478;-72
2021/12/15 04:25:48;;;;;;;31.67;11.93;;;;;;;;;;5037420;28;20581;-71
2021/12/15 04:28:19;;;;;;;30.80;15.33;;;;;;;;;;5040405;28;20814;-72
2021/12/15 04:30:49;;;;;;;30.57;14.00;;;;;;;;;;5040207;28;20454;-72
2021/12/15 04:33:20;;;;;;;33.07;13.60;;;;;;;;;;5040150;28;20458;-72
2021/12/15 04:35:49;;;;;;;31.37;11.87;;;;;;;;;;5040117;28;20464;-72
2021/12/15 04:38:19;;;;;;;32.63;14.93;;;;;;;;;;5041420;28;21022;-71
2021/12/15 04:40:47;;;;;;;34.37;13.63;;;;;;;;;;5039888;28;20438;-72
2021/12/15 04:43:15;;;;;;;37.03;15.77;;;;;;;;;;5040030;28;20739;-72
2021/12/15 04:45:44;;;;;;;31.43;15.87;;;;;;;;;;5041080;28;20528;-71
2021/12/15 04:48:12;;;;;;;22.23;9.67;;;;;;;;;;5040743;28;20465;-71
2021/12/15 04:50:41;;;;;;;28.10;11.37;;;;;;;;;;5040102;28;20446;-71
2021/12/15 04:53:10;;;;;;;34.23;14.20;;;;;;;;;;5040011;28;20878;-71
2021/12/15 04:55:39;;;;;;;39.90;15.73;;;;;;;;;;5040196;28;20470;-72
2021/12/15 04:58:08;;;;;;;33.70;13.67;;;;;;;;;;5039998;28;20472;-72
2021/12/15 05:00:38;;;;;;;27.90;13.03;;;;;;;;;;5039914;28;20978;-72
2021/12/15 05:03:07;;;;;;;32.83;15.60;;;;;;;;;;5039681;28;20465;-71
2021/12/15 05:05:37;;;;;;;33.43;14.17;;;;;;;;;;5040614;28;20508;-72
2021/12/15 05:08:06;;;;;;;35.40;14.37;;;;;;;;;;5040352;28;20524;-70
2021/12/15 05:10:34;;;;;;;28.20;16.00;;;;;;;;;;5039567;28;20450;-72
2021/12/15 05:13:10;;;;;;;30.50;14.50;;;;;;;;;;5039056;28;20474;-72
2021/12/15 05:15:39;;;;;;;30.30;13.07;;;;;;;;;;5040563;28;20450;-73
2021/12/15 05:18:12;;;;;;;35.80;15.37;;;;;;;;;;5050425;28;20507;-73
2021/12/15 05:20:47;;;;;;;36.70;15.53;;;;;;;;;;5057155;28;20461;-73
2021/12/15 05:23:18;;;;;;;36.47;14.53;;;;;;;;;;5056999;28;20464;-73
2021/12/15 05:25:47;;;;;;;34.93;14.20;;;;;;;;;;5042530;28;20792;-72
2021/12/15 05:28:15;;;;;;;35.07;16.33;;;;;;;;;;5059245;28;20500;-72
2021/12/15 05:30:44;;;;;;;38.70;15.60;;;;;;;;;;5059478;28;20511;-72
2021/12/15 05:33:13;;;;;;;44.00;19.73;;;;;;;;;;5058827;28;20449;-72
2021/12/15 05:35:44;;;;;;;43.97;18.73;;;;;;;;;;5056848;28;20534;-73
2021/12/15 05:38:17;;;;;;;36.23;15.50;;;;;;;;;;5056768;28;20528;-73
2021/12/15 05:40:45;;;;;;;51.37;19.57;;;;;;;;;;5058577;28;20442;-72
2021/12/15 05:43:13;;;;;;;48.87;19.30;;;;;;;;;;5057619;28;20536;-72
2021/12/15 05:45:42;;;;;;;39.07;17.03;;;;;;;;;;5058378;28;20936;-72
2021/12/15 05:48:11;;;;;;;35.53;15.93;;;;;;;;;;5058146;28;20513;-71
2021/12/15 05:50:56;;;;;;;40.83;19.00;;;;;;;;;;5055924;28;20454;-73
2021/12/15 05:53:32;;;;;;;40.60;17.20;;;;;;;;;;5056967;28;20532;-73
2021/12/15 05:56:02;;;;;;;46.53;19.20;;;;;;;;;;5057864;28;20445;-72
2021/12/15 05:58:33;;;;;;;43.17;17.63;;;;;;;;;;5058733;28;20775;-72
2021/12/15 06:01:17;;;;;;;50.50;19.63;;;;;;;;;;5057906;28;21025;-71
2021/12/15 06:03:46;;;;;;;38.90;17.40;;;;;;;;;;5035652;28;20465;-72
2021/12/15 06:06:19;;;;;;;40.63;18.60;;;;;;;;;;5056141;28;20508;-71
2021/12/15 06:08:47;;;;;;;48.80;20.17;;;;;;;;;;5057159;28;20469;-72
2021/12/15 06:11:16;;;;;;;48.20;20.13;;;;;;;;;;5057099;28;20454;-73
2021/12/15 06:14:00;;;;;;;50.00;19.50;;;;;;;;;;5056676;28;20552;-72
2021/12/15 06:16:31;;;;;;;40.97;18.37;;;;;;;;;;5041253;28;20885;-71
2021/12/15 06:18:59;;;;;;;53.60;20.63;;;;;;;;;;5035893;28;20458;-72
2021/12/15 06:21:31;;;;;;;51.90;22.20;;;;;;;;;;5053594;28;20481;-72
2021/12/15 06:23:59;;;;;;;50.17;19.83;;;;;;;;;;5054934;28;20457;-72
2021/12/15 06:26:30;;;;;;;47.60;20.17;;;;;;;;;;5053793;28;20576;-72
2021/12/15 06:29:01;;;;;;;39.20;18.97;;;;;;;;;;5054883;28;20558;-72
2021/12/15 06:31:30;;;;;;;44.93;16.73;;;;;;;;;;5050181;28;20470;-74
2021/12/15 06:34:03;;;;;;;51.60;21.00;;;;;;;;;;5050673;28;20442;-73
2021/12/15 06:36:42;;;;;;;43.80;19.90;;;;;;;;;;5049701;28;20880;-71
2021/12/15 06:39:12;;;;;;;45.80;18.47;;;;;;;;;;5050516;28;20761;-72
2021/12/15 06:41:42;;;;;;;51.50;20.83;;;;;;;;;;5039133;28;20445;-71
2021/12/15 06:44:11;;;;;;;53.57;19.53;;;;;;;;;;5039356;28;20553;-71
2021/12/15 06:47:16;;;;;;;34.03;14.20;;;;;;;;;;5047621;28;20490;-71
2021/12/15 06:58:17;;;;;;;45.17;19.07;;;;;;;;;;5046333;28;20424;-71
2021/12/15 07:00:47;;;;;;;41.77;18.43;;;;;;;;;;5052137;28;20541;-72
2021/12/15 07:03:16;;;;;;;53.47;20.53;;;;;;;;;;5045366;28;21118;-72
2021/12/15 07:05:45;;;;;;;47.37;20.60;;;;;;;;;;5049949;28;20489;-71
2021/12/15 07:08:15;;;;;;;50.57;20.87;;;;;;;;;;5035185;28;20457;-72
2021/12/15 07:10:45;;;;;;;53.40;22.77;;;;;;;;;;5046114;28;20507;-72
2021/12/15 07:13:16;;;;;;;55.07;20.70;;;;;;;;;;5053851;28;20567;-72
2021/12/15 07:15:46;;;;;;;49.70;18.93;;;;;;;;;;5054055;28;20446;-71
2021/12/15 07:18:25;;;;;;;48.80;21.87;;;;;;;;;;5054307;28;20505;-72
2021/12/15 07:21:05;;;;;;;43.70;18.10;;;;;;;;;;5054225;28;20951;-72
2021/12/15 07:23:34;;;;;;;47.80;19.50;;;;;;;;;;5046379;28;20446;-72
2021/12/15 07:26:09;;;;;;;38.70;16.83;;;;;;;;;;5047074;28;20889;-72
2021/12/15 07:28:43;;;;;;;34.60;14.87;;;;;;;;;;5055103;28;20529;-72
2021/12/15 07:31:15;;;;;;;43.80;16.30;;;;;;;;;;5052117;28;20540;-72
2021/12/15 07:33:44;;;;;;;41.07;19.07;;;;;;;;;;5052305;28;20487;-73
2021/12/15 07:36:13;;;;;;;37.23;16.57;;;;;;;;;;5039135;28;20509;-72
2021/12/15 07:38:43;;;;;;;41.87;17.60;;;;;;;;;;5054134;28;20481;-72
2021/12/15 07:41:23;;;;;;;45.30;18.37;;;;;;;;;;5037939;28;20442;-72
2021/12/15 07:43:52;;;;;;;33.57;16.20;;;;;;;;;;5054676;28;20457;-72
2021/12/15 07:46:21;;;;;;;38.43;16.53;;;;;;;;;;5049474;28;20882;-71
2021/12/15 07:48:55;;;;;;;31.63;15.70;;;;;;;;;;5045558;28;20457;-72
2021/12/15 07:51:29;;;;;;;37.40;17.07;;;;;;;;;;5041612;28;20481;-73
2021/12/15 07:53:59;;;;;;;33.37;15.07;;;;;;;;;;5048038;28;20966;-73
2021/12/15 07:56:29;;;;;;;35.10;16.13;;;;;;;;;;5048319;28;20523;-72
2021/12/15 07:59:05;;;;;;;31.17;14.90;;;;;;;;;;5042243;28;20462;-71
2021/12/15 08:01:42;;;;;;;34.27;16.83;;;;;;;;;;5045579;28;20873;-72
2021/12/15 08:04:11;;;;;;;43.63;16.93;;;;;;;;;;5047418;28;20798;-71
2021/12/15 08:06:58;;;;;;;31.63;18.43;;;;;;;;;;5039144;28;20961;-74
2021/12/15 08:09:30;;;;;;;28.23;13.60;;;;;;;;;;5038155;28;20458;-72
2021/12/15 08:12:02;;;;;;;33.90;15.93;;;;;;;;;;5039165;28;20862;-72
2021/12/15 08:14:32;;;;;;;32.40;16.93;;;;;;;;;;5046692;28;20557;-71
2021/12/15 08:16:59;;;;;;;32.70;16.17;;;;;;;;;;5037929;28;20456;-70
2021/12/15 08:19:27;;;;;;;34.87;15.73;;;;;;;;;;5042277;28;20463;-73
2021/12/15 08:21:56;;;;;;;22.00;13.13;;;;;;;;;;5037287;28;20458;-72
2021/12/15 08:24:25;;;;;;;41.07;18.13;;;;;;;;;;5042972;28;20464;-72
2021/12/15 08:27:04;;;;;;;33.27;15.27;;;;;;;;;;5057152;28;20489;-71
2021/12/15 08:29:33;;;;;;;28.20;15.50;;;;;;;;;;5057237;28;20444;-72
2021/12/15 08:32:00;;;;;;;34.50;16.20;;;;;;;;;;5056825;28;21141;-72
2021/12/15 08:34:32;;;;;;;27.03;16.33;;;;;;;;;;5055703;28;20652;-72
2021/12/15 08:37:00;;;;;;;26.43;14.70;;;;;;;;;;5057035;28;20441;-73
2021/12/15 08:39:28;;;;;;;33.87;17.50;;;;;;;;;;5058028;28;20920;-73
2021/12/15 08:41:58;;;;;;;32.37;16.50;;;;;;;;;;5042137;28;20879;-72
2021/12/15 08:44:29;;;;;;;37.47;18.30;;;;;;;;;;5040914;28;20464;-71
2021/12/15 08:46:58;;;;;;;28.27;16.03;;;;;;;;;;5055388;28;20485;-72
2021/12/15 08:49:30;;;;;;;30.33;15.80;;;;;;;;;;5052465;28;20521;-74
2021/12/15 08:52:00;;;;;;;29.50;15.67;;;;;;;;;;5055329;28;20453;-72
2021/12/15 08:54:36;;;;;;;21.50;12.27;;;;;;;;;;5045838;28;20462;-73
2021/12/15 08:57:10;;;;;;;29.33;15.17;;;;;;;;;;5056443;28;20457;-73
2021/12/15 08:59:38;;;;;;;23.43;14.83;;;;;;;;;;5050188;28;20511;-72
2021/12/15 09:02:06;;;;;;;27.50;16.27;;;;;;;;;;5046679;28;20753;-72
2021/12/15 09:04:36;;;;;;;27.17;14.90;;;;;;;;;;5039490;28;20457;-72
2021/12/15 09:07:07;;;;;;;40.63;16.63;;;;;;;;;;5052887;28;20496;-73
2021/12/15 09:09:36;;;;;;;26.27;14.30;;;;;;;;;;5056852;28;20453;-73
2021/12/15 09:12:05;;;;;;;24.13;13.50;;;;;;;;;;5056652;28;20714;-73
2021/12/15 09:14:40;;;;;;;32.17;15.80;;;;;;;;;;5052421;28;20572;-73
2021/12/15 09:17:10;;;;;;;32.10;15.47;;;;;;;;;;5044152;28;20455;-73
2021/12/15 09:19:38;;;;;;;34.57;16.20;;;;;;;;;;5054535;28;20472;-72
2021/12/15 09:22:10;;;;;;;30.70;16.40;;;;;;;;;;5051782;28;20948;-73
2021/12/15 09:24:38;;;;;;;25.47;15.83;;;;;;;;;;5055810;28;20540;-74
2021/12/15 09:27:08;;;;;;;32.30;16.03;;;;;;;;;;5047163;28;20478;-73
2021/12/15 09:29:37;;;;;;;42.97;20.47;;;;;;;;;;5039155;28;20466;-74
2021/12/15 09:32:09;;;;;;;25.10;14.63;;;;;;;;;;5033642;28;20938;-72
2021/12/15 09:34:43;;;;;;;30.33;16.07;;;;;;;;;;5034164;28;20836;-73
2021/12/15 09:37:11;;;;;;;29.80;17.20;;;;;;;;;;5036712;28;20457;-72
2021/12/15 09:39:39;;;;;;;37.73;15.63;;;;;;;;;;5036794;28;20577;-73
2021/12/15 09:42:12;;;;;;;34.50;18.87;;;;;;;;;;5032620;28;20462;-73
2021/12/15 09:44:45;;;;;;;34.87;17.53;;;;;;;;;;5053659;28;20450;-73
2021/12/15 10:04:25;;;;;;;29.77;15.87;;;;;;;;;;5035862;28;20440;-72
2021/12/15 10:07:16;;;;;;;29.53;18.23;;;;;;;;;;5034581;28;20521;-72
2021/12/15 10:18:24;;;;;;;27.80;15.67;;;;;;;;;;5024625;28;20438;-73
2021/12/15 10:21:26;;;;;;;32.40;18.53;;;;;;;;;;5036110;28;20804;-71
2021/12/15 10:23:56;;;;;;;32.30;18.57;;;;;;;;;;5035367;28;20461;-74
2021/12/15 10:26:30;;;;;;;26.57;12.80;;;;;;;;;;5033286;28;20532;-72
2021/12/15 10:29:18;;;;;;;34.60;19.83;;;;;;;;;;5034787;28;20932;-73
2021/12/15 10:31:57;;;;;;;37.47;19.40;;;;;;;;;;5030897;28;20554;-74
2021/12/15 10:34:42;;;;;;;39.23;20.03;;;;;;;;;;5020062;28;20813;-72
2021/12/15 10:37:21;;;;;;;27.57;16.83;;;;;;;;;;5033549;28;20473;-73
2021/12/15 10:40:06;;;;;;;33.43;19.10;;;;;;;;;;5034409;28;20442;-72
2021/12/15 10:42:34;;;;;;;31.40;17.33;;;;;;;;;;5014989;28;20524;-72
2021/12/15 10:45:14;;;;;;;32.00;18.33;;;;;;;;;;5027763;28;20466;-72
2021/12/15 10:47:44;;;;;;;29.13;16.03;;;;;;;;;;5023969;28;20942;-74
2021/12/15 10:50:24;;;;;;;34.47;17.67;;;;;;;;;;5028940;28;20465;-72
2021/12/15 10:53:02;;;;;;;32.03;16.37;;;;;;;;;;5035674;28;20590;-73
2021/12/15 10:55:34;;;;;;;32.60;16.70;;;;;;;;;;5032674;28;20469;-74
2021/12/15 10:58:26;;;;;;;27.63;16.37;;;;;;;;;;5034287;28;20459;-74
2021/12/15 11:00:54;;;;;;;35.50;20.93;;;;;;;;;;5020471;28;20882;-72
2021/12/15 11:03:33;;;;;;;30.10;17.70;;;;;;;;;;5034118;28;20447;-74
2021/12/15 11:06:36;;;;;;;39.87;17.57;;;;;;;;;;5033007;28;20477;-74
2021/12/15 11:12:27;;;;;;;22.80;13.87;;;;;;;;;;5013173;28;20486;-72
2021/12/15 11:14:58;;;;;;;31.70;16.90;;;;;;;;;;5021119;28;20448;-73
2021/12/15 11:17:35;;;;;;;26.40;14.83;;;;;;;;;;5027197;28;20458;-74
2021/12/15 11:20:13;;;;;;;29.50;15.03;;;;;;;;;;5033640;28;20798;-74
2021/12/15 11:22:49;;;;;;;33.37;18.00;;;;;;;;;;5033749;28;20454;-73
2021/12/15 11:25:45;;;;;;;35.93;18.33;;;;;;;;;;5034730;28;20495;-74
2021/12/15 11:28:26;;;;;;;31.97;17.63;;;;;;;;;;5033777;28;21156;-74
2021/12/15 11:31:19;;;;;;;42.20;21.50;;;;;;;;;;5033812;28;20470;-75
2021/12/15 11:33:49;;;;;;;35.77;16.77;;;;;;;;;;5032476;28;20497;-72
2021/12/15 11:36:21;;;;;;;37.50;17.77;;;;;;;;;;5042183;28;20548;-73
2021/12/15 11:38:53;;;;;;;30.67;16.00;;;;;;;;;;5056029;28;20468;-75
2021/12/15 11:41:25;;;;;;;29.87;16.80;;;;;;;;;;5056520;28;20526;-74
2021/12/15 11:43:55;;;;;;;35.77;20.30;;;;;;;;;;5044671;28;20466;-73
2021/12/15 11:46:28;;;;;;;31.20;19.33;;;;;;;;;;5034816;28;20453;-74
2021/12/15 11:49:01;;;;;;;34.40;17.03;;;;;;;;;;5034220;28;20968;-73
2021/12/15 11:51:31;;;;;;;36.93;20.40;;;;;;;;;;5035313;28;20472;-72
2021/12/15 11:54:03;;;;;;;31.90;15.53;;;;;;;;;;5034192;28;20474;-73
2021/12/15 11:56:33;;;;;;;27.97;17.10;;;;;;;;;;5034677;28;20546;-73
2021/12/15 11:59:23;;;;;;;34.13;19.93;;;;;;;;;;5031468;28;20470;-73
2021/12/15 12:02:05;;;;;;;32.97;18.20;;;;;;;;;;5015380;28;20455;-73
2021/12/15 12:04:37;;;;;;;31.70;17.33;;;;;;;;;;5023585;28;20904;-72
2021/12/15 12:07:17;;;;;;;38.53;19.23;;;;;;;;;;5033604;28;20478;-75
2021/12/15 12:09:49;;;;;;;35.97;18.57;;;;;;;;;;5033790;28;20746;-74
2021/12/15 12:12:18;;;;;;;34.80;17.70;;;;;;;;;;5033507;28;20465;-73
2021/12/15 12:14:50;;;;;;;30.30;17.67;;;;;;;;;;5033637;28;20494;-74
2021/12/15 12:17:20;;;;;;;36.73;19.67;;;;;;;;;;5033601;28;20473;-74
2021/12/15 12:19:49;;;;;;;35.73;20.27;;;;;;;;;;5033326;28;20472;-73
2021/12/15 12:22:29;;;;;;;37.40;20.00;;;;;;;;;;5018434;28;20469;-73
2021/12/15 12:25:00;;;;;;;35.63;17.87;;;;;;;;;;5028636;28;20898;-72
2021/12/15 12:27:35;;;;;;;33.47;17.90;;;;;;;;;;5032400;28;20489;-72
2021/12/15 12:30:05;;;;;;;36.00;18.60;;;;;;;;;;5018109;28;20471;-73
2021/12/15 12:32:33;;;;;;;35.43;16.63;;;;;;;;;;5013406;28;20455;-74
2021/12/15 12:35:05;;;;;;;31.73;15.37;;;;;;;;;;5027334;28;20458;-73
2021/12/15 12:37:33;;;;;;;31.87;17.00;;;;;;;;;;5034147;28;20540;-74
2021/12/15 12:40:08;;;;;;;28.60;16.00;;;;;;;;;;5033180;28;20537;-73
2021/12/15 12:42:42;;;;;;;31.83;18.97;;;;;;;;;;5032649;28;20472;-72
2021/12/15 12:45:18;;;;;;;20.73;11.27;;;;;;;;;;5045245;28;20841;-72
2021/12/15 12:48:02;;;;;;;29.57;15.83;;;;;;;;;;5055904;28;20485;-72
2021/12/15 12:59:38;;;;;;;28.30;13.40;;;;;;;;;;5036066;28;21918;-72
2021/12/15 13:02:11;;;;;;;31.30;17.47;;;;;;;;;;5038307;28;20456;-71
2021/12/15 13:04:40;;;;;;;29.50;16.20;;;;;;;;;;5035796;28;20997;-72
2021/12/15 13:07:12;;;;;;;26.30;15.10;;;;;;;;;;5036570;28;20454;-71
2021/12/15 13:09:55;;;;;;;23.90;15.30;;;;;;;;;;5036667;28;20466;-73
2021/12/15 13:12:39;;;;;;;24.97;15.33;;;;;;;;;;5034796;28;20450;-74
2021/12/15 13:15:11;;;;;;;25.47;13.50;;;;;;;;;;5037112;28;20450;-73
2021/12/15 13:18:11;;;;;;;29.60;16.80;;;;;;;;;;5035855;28;20438;-74
2021/12/15 13:21:28;;;;;;;20.10;12.70;;;;;;;;;;5018029;28;20447;-72
2021/12/15 13:42:37;;;;;;;29.73;17.07;;;;;;;;;;4936185;29;20463;-72
2021/12/15 13:45:34;;;;;;;31.80;18.37;;;;;;;;;;4949818;28;20458;-74
2021/12/15 14:00:35;;;;;;;28.47;15.50;;;;;;;;;;4900816;29;20834;-72
2021/12/15 14:03:31;;;;;;;29.83;16.80;;;;;;;;;;5025284;28;20471;-71
2021/12/15 14:06:31;;;;;;;;;;;;;;;;;;;;;
2021/12/15 14:12:09;;;;;;;25.63;13.20;;;;;;;;;;5021589;28;20474;-72
2021/12/15 14:14:57;;;;;;;26.17;15.33;;;;;;;;;;5035799;28;20480;-71
2021/12/15 14:17:44;;;;;;;35.17;17.70;;;;;;;;;;5035519;28;20795;-74
2021/12/15 14:20:27;;;;;;;26.33;15.10;;;;;;;;;;5022915;28;20459;-72
2021/12/15 14:23:18;;;;;;;27.23;15.80;;;;;;;;;;5033913;28;20451;-72
2021/12/15 14:25:56;;;;;;;24.03;14.87;;;;;;;;;;5043902;28;20449;-72
2021/12/15 14:28:38;;;;;;;24.73;15.90;;;;;;;;;;5032081;28;21005;-72
2021/12/15 14:31:12;;;;;;;25.13;15.83;;;;;;;;;;5037368;28;20462;-73
2021/12/15 14:39:43;;;;;;;37.00;16.27;;;;;;;;;;5033725;28;20552;-72
2021/12/15 14:42:21;;;;;;;29.07;16.03;;;;;;;;;;5031144;28;20541;-72
2021/12/15 14:44:54;;;;;;;27.13;14.40;;;;;;;;;;5039412;28;20546;-73
2021/12/15 14:47:30;;;;;;;29.93;14.83;;;;;;;;;;5053499;28;20480;-72
2021/12/15 14:50:17;;;;;;;;;;;;;;;;;;;;;
2021/12/15 14:52:56;;;;;;;30.37;16.60;;;;;;;;;;5015856;28;20464;-70
2021/12/15 14:55:25;;;;;;;29.83;17.70;;;;;;;;;;5034485;28;20558;-72
2021/12/15 14:58:17;;;;;;;32.67;19.40;;;;;;;;;;5050995;28;20460;-73
2021/12/15 15:00:49;;;;;;;30.50;16.03;;;;;;;;;;4992721;28;20444;-71
2021/12/15 15:03:24;;;;;;;37.30;19.60;;;;;;;;;;5032252;28;21064;-71
2021/12/15 15:05:57;;;;;;;33.50;16.43;;;;;;;;;;5034784;28;20793;-71
2021/12/15 15:08:35;;;;;;;27.00;15.97;;;;;;;;;;5035345;28;20486;-71
2021/12/15 15:11:05;;;;;;;28.13;16.67;;;;;;;;;;4998704;28;20895;-71
2021/12/15 15:13:40;;;;;;;18.33;11.40;;;;;;;;;;5011526;28;20473;-73
2021/12/15 15:16:11;;;;;;;25.70;15.27;;;;;;;;;;5020555;28;20454;-72
2021/12/15 15:19:03;;;;;;;29.10;14.77;;;;;;;;;;5031239;28;20493;-72
2021/12/15 15:21:32;;;;;;;29.70;18.57;;;;;;;;;;5031994;28;20477;-72
2021/12/15 15:24:02;;;;;;;26.93;15.93;;;;;;;;;;5029975;28;20493;-72
2021/12/15 15:26:33;;;;;;;29.93;15.53;;;;;;;;;;5030163;28;20949;-73
2021/12/15 15:29:01;;;;;;;26.87;15.93;;;;;;;;;;5030758;28;20489;-72
2021/12/15 15:31:38;;;;;;;27.50;17.73;;;;;;;;;;5030909;28;20478;-71
2021/12/15 15:34:12;;;;;;;23.37;15.80;;;;;;;;;;5024867;28;20466;-71
2021/12/15 15:39:52;;;;;;;27.57;15.40;;;;;;;;;;5025086;28;20454;-72
2021/12/15 15:42:34;;;;;;;26.80;17.20;;;;;;;;;;5027254;28;20466;-74
2021/12/15 15:45:29;;;;;;;26.10;15.13;;;;;;;;;;5012280;28;20909;-72
2021/12/15 15:50:51;;;;;;;28.20;16.53;;;;;;;;;;5030298;28;20486;-73
2021/12/15 15:53:28;;;;;;;23.87;15.20;;;;;;;;;;5040769;28;20747;-73
2021/12/15 15:56:05;;;;;;;26.47;14.80;;;;;;;;;;5039862;28;20453;-72
2021/12/15 15:58:33;;;;;;;31.93;14.67;;;;;;;;;;5045325;28;20445;-72
2021/12/15 16:01:05;;;;;;;25.67;14.80;;;;;;;;;;5057209;28;20464;-72
2021/12/15 16:03:34;;;;;;;27.40;14.27;;;;;;;;;;5055760;28;20469;-71
2021/12/15 16:06:05;;;;;;;24.90;14.27;;;;;;;;;;5056560;28;20461;-71
2021/12/15 16:08:36;;;;;;;26.67;15.47;;;;;;;;;;5055085;28;20487;-71
2021/12/15 16:11:07;;;;;;;25.57;14.50;;;;;;;;;;5054794;28;20466;-73
2021/12/15 16:13:41;;;;;;;34.53;16.70;;;;;;;;;;5055853;28;20838;-73
2021/12/15 16:16:12;;;;;;;29.80;15.80;;;;;;;;;;5053947;28;20471;-71
2021/12/15 16:18:43;;;;;;;32.17;17.40;;;;;;;;;;5055777;28;20614;-73
2021/12/15 16:21:25;;;;;;;30.80;15.73;;;;;;;;;;5055645;28;20520;-72
2021/12/15 16:23:52;;;;;;;31.63;16.20;;;;;;;;;;5055577;28;20464;-72
2021/12/15 16:26:26;;;;;;;31.33;17.17;;;;;;;;;;5024416;28;20473;-72
2021/12/15 16:28:54;;;;;;;26.67;15.97;;;;;;;;;;5015264;28;20924;-71
2021/12/15 16:31:39;;;;;;;37.83;17.97;;;;;;;;;;4998067;28;20550;-71
2021/12/15 16:34:09;;;;;;;30.17;17.30;;;;;;;;;;5021372;28;20454;-73
2021/12/15 16:36:40;;;;;;;25.00;15.73;;;;;;;;;;5034116;28;20474;-72
2021/12/15 16:39:11;;;;;;;32.63;16.80;;;;;;;;;;5026079;28;20469;-72
2021/12/15 16:41:51;;;;;;;33.53;18.83;;;;;;;;;;5009128;28;20787;-73
2021/12/15 16:44:20;;;;;;;28.43;18.37;;;;;;;;;;5013182;28;20516;-72
2021/12/15 16:46:53;;;;;;;29.70;17.33;;;;;;;;;;5035183;28;20462;-74
2021/12/15 16:49:29;;;;;;;31.87;17.30;;;;;;;;;;5038231;28;20517;-73
2021/12/15 16:52:10;;;;;;;33.97;17.83;;;;;;;;;;5036756;28;20538;-72
2021/12/15 16:54:42;;;;;;;25.83;15.20;;;;;;;;;;5037574;28;20540;-74
2021/12/15 16:57:16;;;;;;;26.90;15.93;;;;;;;;;;5037152;28;20458;-74
2021/12/15 16:59:50;;;;;;;27.57;15.07;;;;;;;;;;5036994;28;20462;-73